createdAt,value
2022-09-06T00:01:16.151Z,74.50
2022-09-06T00:02:48.558Z,74.60
2022-09-06T00:04:20.827Z,74.70
2022-09-06T00:05:53.326Z,74.80
2022-09-06T00:07:25.767Z,74.80
2022-09-06T00:08:57.884Z,75.10
2022-09-06T00:10:31.467Z,75.20
2022-09-06T00:12:04.033Z,75.20
2022-09-06T00:13:37.444Z,75.20
2022-09-06T00:15:10.561Z,75.10
2022-09-06T00:16:42.774Z,75.00
2022-09-06T00:18:15.207Z,75.10
2022-09-06T00:19:47.320Z,75.10
2022-09-06T00:21:31.241Z,75.30
2022-09-06T00:23:05.780Z,75.30
2022-09-06T00:24:38.249Z,75.20
2022-09-06T00:26:10.844Z,75.60
2022-09-06T00:27:42.995Z,75.60
2022-09-06T00:29:15.184Z,75.70
2022-09-06T00:30:47.681Z,75.70
2022-09-06T00:32:20.049Z,76.00
2022-09-06T00:33:53.526Z,76.10
2022-09-06T00:35:27.826Z,76.20
2022-09-06T00:37:00.460Z,76.40
2022-09-06T00:38:33.667Z,76.50
2022-09-06T00:40:06.850Z,76.70
2022-09-06T00:41:39.044Z,76.60
2022-09-06T00:43:11.370Z,76.80
2022-09-06T00:44:43.475Z,76.70
2022-09-06T00:46:25.645Z,76.80
2022-09-06T00:48:01.995Z,76.80
2022-09-06T00:49:47.741Z,76.70
2022-09-06T00:51:24.339Z,77.10
2022-09-06T00:52:56.595Z,77.20
2022-09-06T00:54:29.221Z,77.30
2022-09-06T00:56:01.953Z,77.40
2022-09-06T00:57:35.063Z,77.50
2022-09-06T00:59:08.089Z,77.70
2022-09-06T01:00:40.203Z,77.70
2022-09-06T01:02:14.017Z,77.70
2022-09-06T01:03:46.192Z,77.70
2022-09-06T01:05:19.397Z,77.80
2022-09-06T01:07:13.426Z,77.90
2022-09-06T01:08:45.655Z,78.00
2022-09-06T01:10:51.628Z,78.10
2022-09-06T01:12:34.323Z,78.20
2022-09-06T01:14:40.614Z,78.30
2022-09-06T01:16:40.332Z,78.40
2022-09-06T01:18:47.035Z,78.50
2022-09-06T01:20:58.960Z,78.50
2022-09-06T01:23:06.648Z,78.80
2022-09-06T01:25:02.397Z,79.00
2022-09-06T01:27:25.379Z,79.30
2022-09-06T01:28:58.648Z,79.20
2022-09-06T01:30:36.176Z,79.30
2022-09-06T01:32:29.530Z,79.20
2022-09-06T01:34:07.710Z,79.00
2022-09-06T01:35:57.888Z,79.10
2022-09-06T01:37:30.665Z,79.20
2022-09-06T01:39:03.353Z,79.00
2022-09-06T01:40:36.566Z,79.20
2022-09-06T01:42:25.640Z,79.20
2022-09-06T01:43:59.249Z,79.10
2022-09-06T01:46:08.010Z,79.20
2022-09-06T01:48:17.172Z,79.30
2022-09-06T01:50:10.881Z,79.40
2022-09-06T01:52:10.823Z,79.50
2022-09-06T01:54:02.714Z,79.70
2022-09-06T01:56:00.327Z,79.70
2022-09-06T01:58:15.795Z,80.00
2022-09-06T02:00:11.033Z,80.30
2022-09-06T02:02:11.990Z,80.40
2022-09-06T02:04:28.771Z,80.50
2022-09-06T02:06:14.932Z,80.50
2022-09-06T02:07:50.381Z,80.60
2022-09-06T02:09:27.645Z,81.00
2022-09-06T02:11:04.508Z,81.10
2022-09-06T02:12:43.415Z,81.10
2022-09-06T02:14:29.204Z,81.10
2022-09-06T02:16:06.172Z,81.90
2022-09-06T02:17:48.864Z,81.20
2022-09-06T02:19:32.939Z,81.40
2022-09-06T02:21:10.558Z,81.40
2022-09-06T02:22:48.067Z,81.30
2022-09-06T02:24:33.000Z,81.50
2022-09-06T02:26:27.193Z,81.80
2022-09-06T02:27:59.519Z,81.70
2022-09-06T02:29:31.855Z,81.70
2022-09-06T02:31:16.654Z,81.70
2022-09-06T02:32:59.896Z,81.70
2022-09-06T02:34:32.448Z,81.90
2022-09-06T02:36:09.533Z,81.70
2022-09-06T02:37:43.442Z,81.70
2022-09-06T02:39:16.543Z,81.80
2022-09-06T02:40:51.874Z,81.90
2022-09-06T02:42:25.598Z,82.10
2022-09-06T02:43:58.079Z,81.90
2022-09-06T02:45:30.415Z,82.00
2022-09-06T02:47:03.453Z,82.10
2022-09-06T02:48:35.648Z,82.20
2022-09-06T02:50:08.528Z,82.40
2022-09-06T02:51:41.236Z,82.50
2022-09-06T02:53:15.138Z,82.20
2022-09-06T02:54:47.317Z,82.20
2022-09-06T02:56:19.570Z,82.30
2022-09-06T02:57:52.311Z,82.30
2022-09-06T02:59:24.551Z,82.40
2022-09-06T03:00:56.734Z,82.60
2022-09-06T03:02:28.984Z,82.60
2022-09-06T03:04:02.196Z,82.60
2022-09-06T03:05:34.383Z,82.70
2022-09-06T03:07:06.544Z,82.80
2022-09-06T03:08:38.930Z,83.00
2022-09-06T03:10:11.413Z,83.00
2022-09-06T03:11:43.702Z,83.40
2022-09-06T03:13:16.751Z,83.20
2022-09-06T03:14:53.022Z,83.40
2022-09-06T03:16:27.203Z,83.50
2022-09-06T03:18:00.074Z,83.40
2022-09-06T03:19:32.220Z,83.50
2022-09-06T03:21:04.591Z,83.70
2022-09-06T03:22:41.646Z,84.00
2022-09-06T03:24:13.880Z,83.90
2022-09-06T03:25:46.638Z,84.10
2022-09-06T03:27:18.866Z,84.20
2022-09-06T03:28:51.288Z,84.30
2022-09-06T03:30:23.481Z,84.20
2022-09-06T03:31:55.648Z,84.20
2022-09-06T03:33:27.975Z,84.20
2022-09-06T03:35:00.506Z,84.00
2022-09-06T03:36:32.694Z,84.10
2022-09-06T03:38:05.187Z,84.40
2022-09-06T03:39:37.466Z,84.30
2022-09-06T03:41:09.895Z,84.10
2022-09-06T03:42:42.257Z,84.40
2022-09-06T03:44:14.539Z,84.40
2022-09-06T03:45:53.360Z,84.70
2022-09-06T03:47:26.327Z,84.70
2022-09-06T03:48:59.631Z,84.90
2022-09-06T03:50:31.824Z,85.00
2022-09-06T03:52:04.263Z,85.00
2022-09-06T03:53:36.614Z,84.90
2022-09-06T03:55:09.545Z,84.80
2022-09-06T03:56:41.678Z,84.80
2022-09-06T03:58:15.448Z,84.40
2022-09-06T03:59:48.189Z,84.30
2022-09-06T04:01:20.565Z,84.40
2022-09-06T04:02:52.814Z,84.60
2022-09-06T04:04:25.009Z,84.40
2022-09-06T04:05:57.410Z,84.30
2022-09-06T04:07:29.631Z,84.40
2022-09-06T04:09:01.800Z,84.30
2022-09-06T04:10:34.058Z,84.10
2022-09-06T04:12:06.554Z,84.20
2022-09-06T04:13:38.725Z,83.50
2022-09-06T04:15:11.473Z,82.60
2022-09-06T04:16:43.920Z,81.40
2022-09-06T04:18:17.366Z,80.50
2022-09-06T04:19:49.542Z,79.20
2022-09-06T04:21:21.672Z,78.40
2022-09-06T04:22:53.811Z,78.10
2022-09-06T04:24:26.192Z,77.60
2022-09-06T04:25:59.474Z,77.50
2022-09-06T04:27:31.739Z,76.60
2022-09-06T04:29:04.207Z,75.90
2022-09-06T04:30:36.524Z,74.70
2022-09-06T04:32:08.838Z,73.60
2022-09-06T04:33:41.451Z,72.60
2022-09-06T04:35:13.859Z,71.40
2022-09-06T04:36:48.463Z,69.70
2022-09-06T04:38:20.810Z,68.60
2022-09-06T04:39:53.112Z,67.70
2022-09-06T04:41:25.278Z,67.00
2022-09-06T04:42:58.456Z,66.20
2022-09-06T04:44:30.568Z,65.40
2022-09-06T04:46:30.395Z,64.20
2022-09-06T04:48:03.547Z,63.00
2022-09-06T04:49:36.154Z,63.00
2022-09-06T04:51:08.268Z,63.60
2022-09-06T04:52:40.417Z,63.30
2022-09-06T04:54:12.995Z,62.70
2022-09-06T04:55:45.211Z,60.90
2022-09-06T04:57:17.354Z,60.20
2022-09-06T04:58:51.609Z,59.40
2022-09-06T05:00:24.024Z,58.00
2022-09-06T05:01:56.206Z,56.90
2022-09-06T05:03:28.440Z,56.50
2022-09-06T05:05:00.570Z,55.60
2022-09-06T05:06:32.900Z,54.40
2022-09-06T05:08:05.079Z,55.10
2022-09-06T05:09:37.295Z,54.00
2022-09-06T05:11:11.026Z,53.20
2022-09-06T05:12:44.386Z,53.30
2022-09-06T05:14:16.784Z,52.90
2022-09-06T05:15:49.127Z,52.50
2022-09-06T05:17:21.258Z,52.40
2022-09-06T05:18:53.696Z,52.60
2022-09-06T05:20:25.952Z,52.40
2022-09-06T05:21:59.092Z,52.50
2022-09-06T05:23:31.308Z,53.30
2022-09-06T05:25:03.846Z,53.70
2022-09-06T05:26:35.992Z,52.60
2022-09-06T05:28:08.170Z,53.00
2022-09-06T05:29:40.510Z,52.70
2022-09-06T05:31:26.760Z,53.10
2022-09-06T05:32:58.967Z,53.20
2022-09-06T05:34:31.156Z,53.30
2022-09-06T05:36:05.692Z,53.30
2022-09-06T05:37:38.180Z,52.40
2022-09-06T05:39:10.557Z,53.40
2022-09-06T05:40:42.842Z,53.50
2022-09-06T05:42:19.170Z,52.50
2022-09-06T05:43:51.981Z,53.10
2022-09-06T05:45:24.382Z,53.80
2022-09-06T05:46:56.566Z,54.00
2022-09-06T05:48:30.437Z,53.80
2022-09-06T05:50:07.028Z,54.30
2022-09-06T05:51:40.912Z,54.20
2022-09-06T05:53:13.147Z,53.90
2022-09-06T05:54:45.366Z,52.80
2022-09-06T05:56:19.116Z,53.10
2022-09-06T05:57:51.271Z,53.70
2022-09-06T05:59:23.426Z,54.60
2022-09-06T06:01:05.790Z,54.90
2022-09-06T06:02:38.489Z,55.50
2022-09-06T06:04:10.691Z,55.50
2022-09-06T06:05:47.696Z,56.00
2022-09-06T06:07:19.856Z,55.70
2022-09-06T06:08:52.383Z,55.70
2022-09-06T06:10:24.508Z,56.00
2022-09-06T06:11:56.654Z,57.10
2022-09-06T06:13:29.971Z,55.00
2022-09-06T06:15:02.312Z,56.20
2022-09-06T06:16:35.433Z,56.10
2022-09-06T06:18:07.568Z,55.30
2022-09-06T06:19:40.226Z,57.20
2022-09-06T06:21:24.719Z,56.60
2022-09-06T06:22:56.856Z,55.70
2022-09-06T06:24:29.085Z,57.10
2022-09-06T06:26:01.440Z,57.50
2022-09-06T06:27:34.871Z,56.70
2022-09-06T06:29:09.638Z,56.80
2022-09-06T06:30:41.766Z,57.00
2022-09-06T06:32:14.015Z,57.50
2022-09-06T06:33:46.405Z,57.70
2022-09-06T06:35:18.763Z,58.80
2022-09-06T06:36:50.867Z,58.10
2022-09-06T06:38:23.020Z,58.30
2022-09-06T06:39:55.461Z,59.00
2022-09-06T06:41:31.856Z,59.10
2022-09-06T06:43:04.109Z,59.00
2022-09-06T06:44:36.236Z,59.80
2022-09-06T06:46:10.767Z,59.70
2022-09-06T06:47:43.008Z,60.50
2022-09-06T06:49:15.125Z,60.70
2022-09-06T06:50:47.676Z,60.30
2022-09-06T06:52:21.611Z,61.40
2022-09-06T06:53:54.443Z,58.60
2022-09-06T06:55:26.624Z,58.00
2022-09-06T06:56:58.779Z,58.60
2022-09-06T06:58:31.255Z,58.50
2022-09-06T07:00:04.903Z,59.60
2022-09-06T07:01:38.033Z,59.00
2022-09-06T07:03:12.215Z,60.10
2022-09-06T07:04:44.572Z,59.30
2022-09-06T07:06:19.156Z,58.80
2022-09-06T07:07:51.329Z,59.50
2022-09-06T07:09:24.421Z,60.10
2022-09-06T07:10:56.957Z,59.50
2022-09-06T07:12:29.277Z,60.00
2022-09-06T07:14:01.418Z,59.30
2022-09-06T07:15:33.572Z,59.80
2022-09-06T07:17:09.248Z,61.20
2022-09-06T07:18:43.424Z,59.80
2022-09-06T07:20:16.305Z,60.10
2022-09-06T07:21:48.991Z,60.00
2022-09-06T07:25:20.397Z,61.10
2022-09-06T07:28:46.752Z,60.80
2022-09-06T07:30:20.160Z,59.10
2022-09-06T07:32:12.223Z,60.10
2022-09-06T07:33:44.574Z,59.30
2022-09-06T07:35:17.284Z,60.10
2022-09-06T07:36:53.995Z,59.50
2022-09-06T07:38:28.755Z,61.00
2022-09-06T07:40:00.911Z,60.60
2022-09-06T07:41:33.302Z,60.40
2022-09-06T07:43:05.534Z,59.10
2022-09-06T07:44:37.744Z,60.20
2022-09-06T07:46:17.881Z,60.50
2022-09-06T07:48:00.302Z,59.50
2022-09-06T07:49:35.524Z,61.50
2022-09-06T07:51:09.324Z,58.90
2022-09-06T07:54:33.902Z,60.10
2022-09-06T07:56:09.456Z,61.50
2022-09-06T07:57:42.008Z,62.50
2022-09-06T07:59:14.196Z,59.30
2022-09-06T08:00:46.663Z,57.80
2022-09-06T08:02:19.113Z,60.00
2022-09-06T08:03:51.352Z,59.40
2022-09-06T08:09:10.547Z,59.30
2022-09-06T08:10:42.747Z,58.70
2022-09-06T08:12:14.876Z,58.40
2022-09-06T08:13:55.660Z,57.40
2022-09-06T08:15:30.043Z,58.60
2022-09-06T08:17:03.786Z,58.30
2022-09-06T08:18:37.481Z,58.70
2022-09-06T08:20:10.561Z,59.20
2022-09-06T08:21:42.748Z,59.10
2022-09-06T08:23:14.857Z,58.30
2022-09-06T08:24:47.125Z,58.90
2022-09-06T08:26:22.411Z,58.50
2022-09-06T08:27:55.240Z,57.80
2022-09-06T08:29:27.546Z,57.60
2022-09-06T08:31:15.475Z,58.30
2022-09-06T08:32:47.908Z,57.40
2022-09-06T08:34:20.048Z,58.20
2022-09-06T08:35:59.600Z,59.10
2022-09-06T08:37:32.919Z,58.60
2022-09-06T08:39:09.183Z,57.70
2022-09-06T08:40:41.415Z,57.70
2022-09-06T08:42:13.548Z,58.70
2022-09-06T08:45:57.333Z,57.50
2022-09-06T08:47:29.769Z,58.00
2022-09-06T08:49:02.068Z,55.50
2022-09-06T08:50:36.481Z,56.70
2022-09-06T08:52:20.569Z,56.90
2022-09-06T08:54:00.593Z,58.50
2022-09-06T08:56:34.133Z,58.30
2022-09-06T08:58:24.891Z,58.10
2022-09-06T09:00:03.731Z,56.00
2022-09-06T09:02:10.838Z,55.80
2022-09-06T09:03:44.515Z,56.40
2022-09-06T09:05:31.563Z,57.70
2022-09-06T09:07:37.622Z,57.50
2022-09-06T09:09:16.240Z,56.90
2022-09-06T09:11:02.140Z,56.20
2022-09-06T09:12:45.977Z,57.80
2022-09-06T09:14:30.844Z,56.30
2022-09-06T09:16:06.097Z,57.90
2022-09-06T09:17:38.514Z,56.90
2022-09-06T09:19:10.936Z,58.30
2022-09-06T09:20:43.404Z,57.50
2022-09-06T09:22:19.546Z,57.30
2022-09-06T09:23:58.868Z,55.50
2022-09-06T09:25:34.259Z,56.80
2022-09-06T09:27:11.509Z,56.00
2022-09-06T09:29:10.366Z,56.50
2022-09-06T09:30:52.699Z,56.60
2022-09-06T09:32:40.619Z,56.70
2022-09-06T09:34:27.064Z,56.70
2022-09-06T09:36:07.379Z,57.40
2022-09-06T09:37:47.205Z,56.20
2022-09-06T09:39:20.205Z,56.50
2022-09-06T09:41:07.691Z,57.60
2022-09-06T09:42:40.828Z,56.10
2022-09-06T09:44:20.804Z,57.00
2022-09-06T09:46:15.700Z,53.40
2022-09-06T09:47:48.291Z,54.80
2022-09-06T09:49:26.130Z,54.90
2022-09-06T09:51:27.418Z,54.90
2022-09-06T09:53:17.307Z,53.90
2022-09-06T09:54:54.015Z,53.40
2022-09-06T09:56:49.735Z,54.00
2022-09-06T09:58:36.211Z,54.40
2022-09-06T10:00:13.432Z,53.80
2022-09-06T10:01:45.686Z,53.80
2022-09-06T10:03:29.668Z,53.30
2022-09-06T10:05:17.364Z,54.60
2022-09-06T10:08:43.841Z,55.50
2022-09-06T10:10:47.675Z,55.00
2022-09-06T10:12:31.324Z,54.50
2022-09-06T10:14:27.412Z,53.90
2022-09-06T10:16:03.151Z,53.30
2022-09-06T10:17:52.204Z,54.20
2022-09-06T10:19:44.201Z,53.80
2022-09-06T10:21:22.254Z,55.00
2022-09-06T10:25:33.802Z,56.10
2022-09-06T10:27:07.174Z,54.00
2022-09-06T10:28:45.411Z,53.00
2022-09-06T10:30:18.066Z,55.20
2022-09-06T10:32:02.043Z,53.60
2022-09-06T10:34:14.803Z,53.80
2022-09-06T10:35:47.107Z,52.70
2022-09-06T10:37:48.352Z,54.20
2022-09-06T10:39:43.775Z,55.00
2022-09-06T10:41:33.253Z,54.20
2022-09-06T10:43:17.685Z,56.20
2022-09-06T10:45:18.054Z,54.20
2022-09-06T10:47:02.867Z,53.80
2022-09-06T10:48:45.604Z,54.40
2022-09-06T10:50:19.388Z,55.40
2022-09-06T10:52:05.841Z,54.60
2022-09-06T10:54:01.825Z,54.20
2022-09-06T10:55:35.639Z,53.90
2022-09-06T10:59:46.815Z,53.40
2022-09-06T11:01:54.088Z,53.10
2022-09-06T11:04:01.868Z,52.20
2022-09-06T11:05:51.555Z,54.90
2022-09-06T11:09:56.269Z,52.10
2022-09-06T11:12:09.909Z,53.40
2022-09-06T11:13:42.054Z,52.10
2022-09-06T11:15:18.064Z,53.10
2022-09-06T11:17:06.491Z,52.80
2022-09-06T11:19:06.520Z,53.30
2022-09-06T11:20:50.589Z,54.20
2022-09-06T11:22:37.675Z,54.80
2022-09-06T11:24:25.796Z,52.60
2022-09-06T11:26:34.589Z,54.20
2022-09-06T11:28:16.967Z,53.60
2022-09-06T11:29:56.379Z,54.00
2022-09-06T11:33:39.678Z,52.40
2022-09-06T11:35:27.243Z,52.30
2022-09-06T11:37:22.956Z,53.80
2022-09-06T11:39:02.329Z,52.70
2022-09-06T11:40:41.713Z,53.70
2022-09-06T11:42:41.935Z,52.40
2022-09-06T11:44:53.300Z,53.80
2022-09-06T11:46:34.487Z,53.30
2022-09-06T11:48:26.320Z,53.90
2022-09-06T11:49:58.848Z,52.50
2022-09-06T11:51:40.409Z,51.90
2022-09-06T11:53:19.812Z,53.70
2022-09-06T11:54:53.504Z,52.90
2022-09-06T11:56:40.912Z,52.10
2022-09-06T11:58:45.008Z,52.20
2022-09-06T12:00:24.460Z,53.90
2022-09-06T12:01:56.506Z,53.60
2022-09-06T12:04:09.502Z,53.80
2022-09-06T12:06:24.816Z,52.90
2022-09-06T12:08:33.427Z,52.30
2022-09-06T12:10:31.847Z,54.10
2022-09-06T12:12:05.480Z,52.50
2022-09-06T12:13:46.940Z,52.70
2022-09-06T12:15:44.538Z,53.00
2022-09-06T12:17:20.837Z,52.80
2022-09-06T12:18:56.374Z,53.50
2022-09-06T12:20:54.364Z,52.20
2022-09-06T12:22:40.353Z,53.50
2022-09-06T12:24:34.221Z,52.30
2022-09-06T12:26:11.745Z,52.30
2022-09-06T12:28:00.110Z,52.90
2022-09-06T12:29:32.381Z,52.60
2022-09-06T12:31:31.210Z,54.00
2022-09-06T12:33:17.031Z,54.60
2022-09-06T12:37:00.687Z,53.20
2022-09-06T12:38:33.066Z,52.70
2022-09-06T12:40:07.616Z,52.90
2022-09-06T12:41:45.069Z,51.50
2022-09-06T12:43:19.229Z,53.60
2022-09-06T12:44:54.644Z,52.10
2022-09-06T12:46:31.107Z,51.30
2022-09-06T12:48:35.379Z,51.40
2022-09-06T12:50:25.156Z,52.60
2022-09-06T12:52:15.715Z,53.00
2022-09-06T12:53:58.575Z,51.60
2022-09-06T12:55:37.004Z,52.00
2022-09-06T12:57:24.049Z,51.90
2022-09-06T12:59:25.039Z,52.30
2022-09-06T13:01:15.958Z,53.00
2022-09-06T13:03:25.903Z,52.10
2022-09-06T13:05:11.141Z,51.90
2022-09-06T13:06:47.623Z,51.20
2022-09-06T13:08:42.703Z,51.20
2022-09-06T13:10:21.895Z,53.00
2022-09-06T13:12:04.522Z,51.30
2022-09-06T13:13:37.104Z,51.80
2022-09-06T13:15:20.724Z,53.10
2022-09-06T13:16:57.175Z,52.40
2022-09-06T13:18:36.994Z,51.10
2022-09-06T13:20:24.354Z,52.60
2022-09-06T13:21:58.399Z,51.20
2022-09-06T13:23:52.884Z,52.30
2022-09-06T13:25:26.603Z,51.70
2022-09-06T13:26:58.788Z,52.10
2022-09-06T13:28:34.609Z,51.60
2022-09-06T13:30:10.365Z,51.30
2022-09-06T13:31:50.329Z,51.80
2022-09-06T13:33:27.186Z,52.30
2022-09-06T13:35:00.687Z,53.10
2022-09-06T13:36:33.813Z,52.40
2022-09-06T13:38:32.295Z,51.20
2022-09-06T13:41:16.087Z,50.90
2022-09-06T13:42:49.145Z,51.20
2022-09-06T13:44:33.163Z,51.60
2022-09-06T13:46:12.297Z,51.50
2022-09-06T13:47:44.676Z,52.30
2022-09-06T13:49:17.082Z,52.80
2022-09-06T13:50:49.246Z,52.00
2022-09-06T13:52:22.496Z,52.50
2022-09-06T13:54:10.524Z,51.00
2022-09-06T13:55:43.005Z,52.30
2022-09-06T13:57:15.333Z,53.00
2022-09-06T13:58:47.528Z,53.30
2022-09-06T14:00:19.891Z,51.60
2022-09-06T14:02:07.726Z,52.70
2022-09-06T14:03:42.541Z,52.40
2022-09-06T14:05:14.941Z,54.10
2022-09-06T14:06:48.892Z,52.80
2022-09-06T14:08:21.720Z,52.90
2022-09-06T14:09:53.887Z,52.70
2022-09-06T14:11:26.214Z,53.40
2022-09-06T14:12:58.481Z,52.60
2022-09-06T14:14:31.007Z,53.20
2022-09-06T14:16:05.453Z,51.90
2022-09-06T14:17:37.806Z,51.90
2022-09-06T14:19:10.025Z,53.10
2022-09-06T14:20:50.801Z,52.90
2022-09-06T14:22:23.020Z,52.90
2022-09-06T14:23:55.261Z,52.90
2022-09-06T14:25:27.720Z,53.70
2022-09-06T14:27:00.143Z,53.20
2022-09-06T14:28:34.142Z,55.10
2022-09-06T14:30:06.976Z,53.90
2022-09-06T14:31:39.670Z,54.10
2022-09-06T14:33:12.206Z,53.80
2022-09-06T14:34:44.679Z,54.70
2022-09-06T14:36:20.861Z,52.80
2022-09-06T14:37:53.027Z,53.20
2022-09-06T14:39:25.457Z,54.60
2022-09-06T14:41:05.028Z,54.80
2022-09-06T14:42:37.320Z,55.40
2022-09-06T14:44:10.452Z,53.10
2022-09-06T14:45:42.868Z,53.60
2022-09-06T14:47:15.035Z,52.60
2022-09-06T14:48:47.874Z,52.40
2022-09-06T14:50:20.081Z,54.00
2022-09-06T14:51:53.755Z,54.20
2022-09-06T14:53:39.921Z,53.50
2022-09-06T14:55:13.116Z,53.80
2022-09-06T14:56:45.520Z,55.10
2022-09-06T14:58:17.975Z,54.20
2022-09-06T14:59:50.239Z,53.50
2022-09-06T15:01:28.861Z,54.40
2022-09-06T15:03:01.702Z,54.60
2022-09-06T15:04:34.733Z,55.10
2022-09-06T15:06:08.240Z,55.00
2022-09-06T15:07:40.454Z,55.40
2022-09-06T15:09:16.433Z,54.70
2022-09-06T15:10:56.319Z,55.10
2022-09-06T15:12:28.677Z,56.20
2022-09-06T15:14:08.158Z,55.70
2022-09-06T15:15:40.371Z,56.20
2022-09-06T15:17:13.147Z,56.00
2022-09-06T15:18:45.324Z,56.70
2022-09-06T15:20:17.799Z,57.30
2022-09-06T15:21:50.266Z,57.80
2022-09-06T15:23:25.085Z,57.70
2022-09-06T15:24:57.786Z,57.60
2022-09-06T15:26:30.811Z,57.40
2022-09-06T15:28:03.880Z,57.70
2022-09-06T15:29:36.447Z,58.20
2022-09-06T15:31:09.446Z,58.10
2022-09-06T15:32:43.190Z,58.50
2022-09-06T15:34:15.674Z,59.00
2022-09-06T15:35:57.324Z,59.50
2022-09-06T15:37:29.567Z,59.80
2022-09-06T15:39:04.449Z,59.70
2022-09-06T15:40:37.015Z,60.00
2022-09-06T15:42:09.446Z,60.10
2022-09-06T15:43:46.929Z,60.10
2022-09-06T15:45:19.176Z,59.80
2022-09-06T15:46:58.125Z,60.30
2022-09-06T15:48:50.783Z,60.30
2022-09-06T15:50:47.519Z,60.40
2022-09-06T15:52:16.494Z,60.70
2022-09-06T15:53:48.999Z,60.50
2022-09-06T15:55:41.636Z,61.00
2022-09-06T15:57:16.584Z,60.30
2022-09-06T15:58:48.879Z,60.90
2022-09-06T16:00:23.657Z,61.20
2022-09-06T16:01:55.968Z,61.50
2022-09-06T16:03:28.507Z,61.60
2022-09-06T16:05:01.535Z,62.20
2022-09-06T16:06:42.573Z,62.80
2022-09-06T16:08:14.876Z,62.80
2022-09-06T16:09:47.154Z,63.20
2022-09-06T16:11:19.660Z,62.80
2022-09-06T16:12:53.175Z,63.10
2022-09-06T16:14:25.666Z,63.50
2022-09-06T16:16:00.103Z,63.10
2022-09-06T16:17:32.732Z,63.30
2022-09-06T16:19:05.148Z,64.00
2022-09-06T16:20:38.466Z,63.30
2022-09-06T16:22:10.832Z,63.90
2022-09-06T16:23:48.523Z,64.50
2022-09-06T16:25:21.084Z,64.30
2022-09-06T16:26:53.260Z,65.40
2022-09-06T16:28:29.573Z,64.50
2022-09-06T16:30:02.601Z,65.20
2022-09-06T16:31:40.075Z,65.50
2022-09-06T16:33:13.790Z,65.60
2022-09-06T16:34:46.043Z,65.90
2022-09-06T16:36:18.963Z,65.50
2022-09-06T16:37:51.403Z,66.00
2022-09-06T16:39:23.997Z,65.70
2022-09-06T16:40:56.275Z,65.50
2022-09-06T16:42:28.555Z,65.30
2022-09-06T16:44:01.119Z,65.70
2022-09-06T16:45:33.398Z,65.90
2022-09-06T16:47:06.194Z,66.10
2022-09-06T16:48:42.144Z,66.20
2022-09-06T16:50:15.096Z,66.30
2022-09-06T16:51:49.325Z,66.60
2022-09-06T16:53:23.866Z,66.70
2022-09-06T16:54:56.172Z,67.00
2022-09-06T16:56:33.520Z,67.20
2022-09-06T16:58:06.100Z,67.50
2022-09-06T16:59:38.320Z,68.00
2022-09-06T17:01:11.160Z,67.20
2022-09-06T17:02:47.097Z,67.60
2022-09-06T17:04:19.527Z,67.20
2022-09-06T17:05:52.788Z,67.60
2022-09-06T17:07:25.102Z,67.80
2022-09-06T17:08:58.942Z,68.00
2022-09-06T17:10:31.315Z,68.00
2022-09-06T17:12:04.230Z,68.00
2022-09-06T17:13:37.747Z,67.70
2022-09-06T17:15:11.320Z,67.90
2022-09-06T17:17:02.254Z,68.00
2022-09-06T17:18:35.795Z,67.60
2022-09-06T17:20:09.868Z,67.80
2022-09-06T17:21:42.671Z,68.20
2022-09-06T17:23:19.132Z,67.80
2022-09-06T17:24:52.556Z,68.20
2022-09-06T17:26:25.327Z,68.10
2022-09-06T17:27:58.161Z,68.60
2022-09-06T17:29:31.254Z,68.10
2022-09-06T17:31:05.520Z,68.60
2022-09-06T17:32:37.811Z,69.20
2022-09-06T17:34:10.568Z,69.10
2022-09-06T17:35:43.350Z,68.50
2022-09-06T17:37:15.643Z,69.30
2022-09-06T17:38:52.864Z,69.60
2022-09-06T17:40:26.161Z,69.30
2022-09-06T17:41:58.813Z,69.50
2022-09-06T17:43:31.276Z,69.40
2022-09-06T17:45:03.789Z,69.70
2022-09-06T17:46:38.946Z,69.20
2022-09-06T17:48:16.565Z,69.70
2022-09-06T17:49:48.895Z,69.30
2022-09-06T17:51:21.321Z,68.90
2022-09-06T17:52:53.691Z,68.80
2022-09-06T17:54:25.979Z,69.00
2022-09-06T17:55:58.627Z,68.60
2022-09-06T17:57:31.028Z,67.70
2022-09-06T17:59:08.069Z,67.50
2022-09-06T18:00:41.250Z,67.20
2022-09-06T18:02:13.633Z,67.00
2022-09-06T18:03:47.136Z,66.50
2022-09-06T18:05:19.627Z,66.30
2022-09-06T18:06:51.859Z,66.50
2022-09-06T18:08:24.040Z,66.20
2022-09-06T18:09:56.212Z,66.50
2022-09-06T18:11:33.147Z,65.50
2022-09-06T18:13:06.456Z,65.60
2022-09-06T18:14:38.759Z,64.80
2022-09-06T18:16:14.183Z,65.20
2022-09-06T18:17:46.612Z,65.20
2022-09-06T18:19:18.997Z,64.60
2022-09-06T18:20:51.852Z,65.40
2022-09-06T18:22:24.791Z,64.80
2022-09-06T18:23:58.473Z,64.60
2022-09-06T18:25:30.943Z,64.30
2022-09-06T18:27:03.219Z,63.80
2022-09-06T18:28:37.094Z,64.10
2022-09-06T18:30:14.629Z,63.50
2022-09-06T18:31:47.717Z,63.20
2022-09-06T18:33:23.786Z,63.20
2022-09-06T18:34:56.608Z,63.00
2022-09-06T18:36:32.168Z,62.70
2022-09-06T18:38:04.846Z,62.50
2022-09-06T18:39:37.225Z,62.10
2022-09-06T18:41:31.327Z,62.40
2022-09-06T18:43:04.276Z,61.80
2022-09-06T18:44:37.495Z,62.40
2022-09-06T18:46:13.036Z,62.00
2022-09-06T18:47:45.287Z,62.20
2022-09-06T18:49:18.684Z,62.40
2022-09-06T18:50:51.087Z,61.90
2022-09-06T18:52:23.331Z,62.50
2022-09-06T18:53:57.946Z,62.30
2022-09-06T18:55:31.753Z,61.90
2022-09-06T18:57:04.291Z,61.60
2022-09-06T18:58:37.251Z,62.10
2022-09-06T19:00:11.329Z,62.00
2022-09-06T19:01:44.460Z,61.10
2022-09-06T19:03:17.067Z,62.40
2022-09-06T19:04:49.383Z,62.30
2022-09-06T19:06:22.307Z,62.30
2022-09-06T19:07:54.719Z,62.00
2022-09-06T19:09:26.907Z,61.50
2022-09-06T19:11:01.528Z,60.90
2022-09-06T19:12:33.750Z,61.10
2022-09-06T19:14:06.196Z,60.80
2022-09-06T19:15:41.116Z,60.10
2022-09-06T19:17:13.325Z,60.90
2022-09-06T19:18:46.150Z,60.60
2022-09-06T19:20:20.492Z,61.00
2022-09-06T19:21:52.667Z,61.10
2022-09-06T19:23:25.755Z,60.90
2022-09-06T19:24:58.632Z,60.70
2022-09-06T19:26:35.287Z,61.10
2022-09-06T19:28:07.577Z,61.30
2022-09-06T19:29:39.908Z,61.00
2022-09-06T19:31:14.477Z,60.80
2022-09-06T19:32:47.573Z,61.00
2022-09-06T19:34:20.025Z,60.80
2022-09-06T19:36:10.317Z,61.10
2022-09-06T19:37:43.527Z,60.70
2022-09-06T19:39:17.080Z,61.50
2022-09-06T19:40:49.309Z,61.70
2022-09-06T19:42:21.686Z,61.80
2022-09-06T19:43:57.055Z,61.80
2022-09-06T19:45:29.578Z,61.60
2022-09-06T19:47:01.821Z,61.30
2022-09-06T19:48:37.323Z,60.90
2022-09-06T19:50:09.638Z,61.40
2022-09-06T19:51:43.908Z,61.60
2022-09-06T19:53:16.119Z,61.60
2022-09-06T19:54:48.363Z,61.90
2022-09-06T19:56:26.063Z,61.80
2022-09-06T19:57:59.808Z,61.50
2022-09-06T19:59:35.987Z,61.90
2022-09-06T20:01:10.654Z,61.70
2022-09-06T20:02:42.995Z,61.80
2022-09-06T20:04:16.043Z,61.70
2022-09-06T20:05:48.488Z,61.60
2022-09-06T20:07:20.660Z,62.20
2022-09-06T20:08:56.091Z,61.80
2022-09-06T20:10:28.591Z,61.90
2022-09-06T20:12:00.879Z,61.70
2022-09-06T20:13:37.155Z,61.70
2022-09-06T20:15:10.824Z,62.20
2022-09-06T20:16:43.373Z,62.30
2022-09-06T20:18:17.632Z,61.80
2022-09-06T20:19:49.838Z,61.70
2022-09-06T20:21:22.493Z,61.70
2022-09-06T20:22:54.860Z,61.40
2022-09-06T20:24:28.032Z,61.50
2022-09-06T20:26:10.693Z,61.70
2022-09-06T20:27:44.650Z,61.70
2022-09-06T20:29:17.378Z,61.90
2022-09-06T20:30:49.561Z,61.70
2022-09-06T20:32:21.915Z,61.70
2022-09-06T20:33:54.713Z,62.10
2022-09-06T20:35:28.322Z,62.20
2022-09-06T20:37:00.602Z,62.30
2022-09-06T20:38:36.119Z,62.20
2022-09-06T20:40:09.500Z,62.60
2022-09-06T20:41:41.917Z,62.40
2022-09-06T20:43:14.084Z,62.20
2022-09-06T20:44:46.249Z,62.40
2022-09-06T20:46:21.669Z,61.90
2022-09-06T20:47:56.153Z,62.30
2022-09-06T20:49:28.304Z,62.50
2022-09-06T20:51:04.928Z,62.70
2022-09-06T20:52:37.336Z,63.10
2022-09-06T20:54:11.152Z,63.10
2022-09-06T20:56:01.663Z,63.10
2022-09-06T20:57:34.008Z,63.10
2022-09-06T20:59:10.782Z,63.80
2022-09-06T21:00:43.221Z,63.90
2022-09-06T21:02:16.361Z,64.20
2022-09-06T21:03:52.125Z,64.30
2022-09-06T21:05:24.410Z,64.10
2022-09-06T21:06:56.929Z,64.50
2022-09-06T21:08:32.858Z,64.70
2022-09-06T21:10:07.337Z,64.90
2022-09-06T21:11:40.223Z,65.00
2022-09-06T21:13:13.073Z,65.40
2022-09-06T21:14:45.270Z,65.30
2022-09-06T21:16:24.027Z,65.70
2022-09-06T21:17:57.063Z,66.10